createdAt,value
2018-08-17T00:00:55.067Z,30.02
2018-08-17T00:01:55.108Z,29.35
2018-08-17T00:02:55.153Z,29.35
2018-08-17T00:03:55.190Z,28.97
2018-08-17T00:04:55.230Z,28.20
2018-08-17T00:05:55.322Z,28.57
2018-08-17T00:06:55.314Z,28.09
2018-08-17T00:07:55.351Z,27.42
2018-08-17T00:08:55.391Z,27.23
2018-08-17T00:09:55.431Z,26.85
2018-08-17T00:10:55.481Z,27.04
2018-08-17T00:11:55.511Z,26.18
2018-08-17T00:12:55.554Z,25.60
2018-08-17T00:13:55.595Z,24.64
2018-08-17T00:14:55.635Z,24.26
2018-08-17T00:15:55.674Z,24.07
2018-08-17T00:16:55.714Z,23.39
2018-08-17T00:17:55.755Z,22.91
2018-08-17T00:18:55.804Z,22.42
2018-08-17T00:19:55.835Z,22.15
2018-08-17T00:20:55.876Z,21.28
2018-08-17T00:21:55.915Z,20.61
2018-08-17T00:22:55.956Z,20.32
2018-08-17T00:23:56.003Z,20.51
2018-08-17T00:24:56.036Z,20.22
2018-08-17T00:25:56.074Z,20.12
2018-08-17T00:26:56.116Z,20.22
2018-08-17T00:27:56.158Z,20.12
2018-08-17T00:28:56.196Z,20.70
2018-08-17T00:29:56.236Z,20.51
2018-08-17T00:30:56.276Z,19.74
2018-08-17T00:31:56.317Z,19.74
2018-08-17T00:32:56.355Z,19.74
2018-08-17T00:33:56.397Z,20.32
2018-08-17T00:34:56.437Z,20.51
2018-08-17T00:35:56.477Z,20.70
2018-08-17T00:36:56.518Z,21.56
2018-08-17T00:37:56.561Z,21.08
2018-08-17T00:38:56.597Z,21.66
2018-08-17T00:39:56.636Z,21.08
2018-08-17T00:40:56.679Z,20.79
2018-08-17T00:41:56.718Z,20.41
2018-08-17T00:42:56.767Z,21.18
2018-08-17T00:43:56.799Z,20.98
2018-08-17T00:44:56.842Z,21.75
2018-08-17T00:45:56.877Z,20.89
2018-08-17T00:46:56.968Z,20.89
2018-08-17T00:47:56.979Z,21.18
2018-08-17T00:48:57.000Z,20.70
2018-08-17T00:49:57.038Z,20.02
2018-08-17T00:50:57.078Z,19.35
2018-08-17T00:51:57.120Z,18.10
2018-08-17T00:52:57.158Z,17.82
2018-08-17T00:53:57.198Z,17.91
2018-08-17T00:54:57.238Z,17.72
2018-08-17T00:55:57.280Z,17.91
2018-08-17T00:56:57.319Z,18.40
2018-08-17T00:57:57.359Z,18.68
2018-08-17T00:58:57.397Z,18.77
2018-08-17T00:59:57.437Z,18.77
2018-08-17T01:00:57.481Z,19.16
2018-08-17T01:01:57.517Z,19.25
2018-08-17T01:02:57.557Z,19.55
2018-08-17T01:03:57.600Z,19.45
2018-08-17T01:04:57.636Z,19.06
2018-08-17T01:05:57.677Z,19.45
2018-08-17T01:06:57.717Z,19.25
2018-08-17T01:07:57.755Z,18.39
2018-08-17T01:08:57.797Z,18.29
2018-08-17T01:09:57.847Z,18.20
2018-08-17T01:10:57.878Z,18.10
2018-08-17T01:11:57.915Z,17.82
2018-08-17T01:12:58.005Z,17.43
2018-08-17T01:13:57.999Z,17.05
2018-08-17T01:14:58.036Z,17.05
2018-08-17T01:15:58.076Z,16.96
2018-08-17T01:16:58.117Z,16.28
2018-08-17T01:17:58.154Z,16.28
2018-08-17T01:18:58.195Z,16.66
2018-08-17T01:19:58.233Z,16.28
2018-08-17T01:20:58.275Z,16.37
2018-08-17T01:21:58.313Z,16.28
2018-08-17T01:22:58.354Z,16.27
2018-08-17T01:23:58.392Z,16.08
2018-08-17T01:24:58.432Z,16.08
2018-08-17T01:25:58.472Z,13.88
2018-08-17T01:26:58.513Z,11.96
2018-08-17T01:27:58.554Z,12.16
2018-08-17T01:28:58.590Z,12.16
2018-08-17T01:29:58.630Z,12.26
2018-08-17T01:30:58.671Z,11.87
2018-08-17T01:31:58.709Z,11.68
2018-08-17T01:32:58.751Z,9.86
2018-08-17T01:33:58.790Z,8.52
2018-08-17T01:34:58.831Z,8.42
2018-08-17T01:35:58.871Z,8.81
2018-08-17T01:36:58.910Z,8.81
2018-08-17T01:37:58.950Z,8.90
2018-08-17T01:38:58.991Z,8.71
2018-08-17T01:39:59.029Z,9.28
2018-08-17T01:40:59.068Z,9.95
2018-08-17T01:41:59.108Z,10.14
2018-08-17T01:42:59.147Z,10.63
2018-08-17T01:43:59.188Z,11.39
2018-08-17T01:44:59.229Z,11.58
2018-08-17T01:45:59.268Z,12.63
2018-08-17T01:46:59.309Z,12.63
2018-08-17T01:47:59.348Z,12.35
2018-08-17T01:48:59.395Z,12.16
2018-08-17T01:49:59.428Z,11.77
2018-08-17T01:50:59.464Z,11.01
2018-08-17T01:51:59.505Z,11.68
2018-08-17T01:52:59.546Z,12.06
2018-08-17T01:53:59.587Z,11.96
2018-08-17T01:54:59.647Z,12.16
2018-08-17T01:55:59.665Z,12.35
2018-08-17T01:56:59.705Z,11.77
2018-08-17T01:57:59.743Z,12.06
2018-08-17T01:58:59.784Z,11.87
2018-08-17T01:59:59.823Z,12.45
2018-08-17T02:00:59.862Z,11.01
2018-08-17T02:01:59.902Z,9.86
2018-08-17T02:02:59.944Z,9.57
2018-08-17T02:03:59.982Z,9.67
2018-08-17T02:05:00.023Z,9.57
2018-08-17T02:06:00.063Z,9.67
2018-08-17T02:07:00.102Z,10.05
2018-08-17T02:08:00.141Z,10.43
2018-08-17T02:09:00.181Z,10.82
2018-08-17T02:10:00.225Z,11.30
2018-08-17T02:11:00.261Z,9.77
2018-08-17T02:12:00.298Z,9.09
2018-08-17T02:13:00.338Z,9.67
2018-08-17T02:14:00.389Z,10.24
2018-08-17T02:15:00.418Z,11.01
2018-08-17T02:16:00.457Z,11.20
2018-08-17T02:17:00.545Z,10.34
2018-08-17T02:18:00.548Z,10.34
2018-08-17T02:19:00.578Z,10.24
2018-08-17T02:20:00.616Z,10.43
2018-08-17T02:21:00.660Z,9.77
2018-08-17T02:22:00.697Z,9.57
2018-08-17T02:23:00.737Z,9.09
2018-08-17T02:24:00.776Z,9.38
2018-08-17T02:25:00.816Z,9.09
2018-08-17T02:26:00.855Z,9.00
2018-08-17T02:27:00.895Z,8.42
2018-08-17T02:28:00.933Z,8.23
2018-08-17T02:29:00.973Z,8.61
2018-08-17T02:30:01.013Z,8.90
2018-08-17T02:31:01.052Z,8.23
2018-08-17T02:32:01.091Z,8.23
2018-08-17T02:33:01.132Z,7.75
2018-08-17T02:34:01.177Z,7.84
2018-08-17T02:35:01.212Z,7.37
2018-08-17T02:36:01.253Z,6.12
2018-08-17T02:37:01.291Z,5.65
2018-08-17T02:38:01.340Z,5.83
2018-08-17T02:39:01.371Z,6.51
2018-08-17T02:40:01.413Z,6.31
2018-08-17T02:41:01.451Z,6.70
2018-08-17T02:42:01.491Z,6.51
2018-08-17T02:43:01.529Z,6.41
2018-08-17T02:44:01.572Z,6.51
2018-08-17T02:45:01.609Z,6.22
2018-08-17T02:46:01.651Z,6.79
2018-08-17T02:47:01.687Z,7.17
2018-08-17T02:48:01.730Z,7.27
2018-08-17T02:49:01.769Z,7.65
2018-08-17T02:50:01.807Z,7.84
2018-08-17T02:51:01.845Z,7.94
2018-08-17T02:52:01.888Z,8.42
2018-08-17T02:53:01.927Z,7.65
2018-08-17T02:54:01.975Z,7.08
2018-08-17T02:55:02.004Z,7.27
2018-08-17T02:56:02.147Z,7.27
2018-08-17T02:57:02.101Z,7.17
2018-08-17T02:58:02.131Z,7.37
2018-08-17T02:59:02.163Z,6.60
2018-08-17T03:00:02.199Z,6.70
2018-08-17T03:01:02.240Z,5.83
2018-08-17T03:02:02.281Z,5.83
2018-08-17T03:03:02.320Z,6.60
2018-08-17T03:04:02.359Z,5.83
2018-08-17T03:05:02.397Z,5.55
2018-08-17T03:06:02.437Z,5.55
2018-08-17T03:07:02.477Z,5.74
2018-08-17T03:08:02.517Z,5.83
2018-08-17T03:09:02.568Z,6.12
2018-08-17T03:10:02.595Z,6.31
2018-08-17T03:11:02.638Z,5.83
2018-08-17T03:12:02.673Z,5.83
2018-08-17T03:13:02.716Z,5.65
2018-08-17T03:14:02.756Z,6.60
2018-08-17T03:15:02.793Z,6.51
2018-08-17T03:16:02.834Z,7.08
2018-08-17T03:17:02.870Z,6.41
2018-08-17T03:18:02.912Z,6.21
2018-08-17T03:19:02.953Z,6.60
2018-08-17T03:20:02.990Z,6.79
2018-08-17T03:21:03.030Z,6.70
2018-08-17T03:22:03.085Z,6.41
2018-08-17T03:23:03.110Z,6.88
2018-08-17T03:24:03.148Z,5.54
2018-08-17T03:25:03.189Z,4.49
2018-08-17T03:26:03.232Z,4.39
2018-08-17T03:27:03.268Z,4.30
2018-08-17T03:28:03.315Z,3.82
2018-08-17T03:29:03.345Z,3.73
2018-08-17T03:30:03.385Z,3.82
2018-08-17T03:31:03.426Z,3.73
2018-08-17T03:32:03.462Z,3.82
2018-08-17T03:33:03.514Z,3.82
2018-08-17T03:34:03.542Z,3.34
2018-08-17T03:35:03.583Z,2.67
2018-08-17T03:36:03.629Z,2.01
2018-08-17T03:37:03.662Z,1.91
2018-08-17T03:38:03.750Z,1.81
2018-08-17T03:39:03.740Z,1.43
2018-08-17T03:40:03.780Z,2.01
2018-08-17T03:41:03.819Z,1.81
2018-08-17T03:42:03.860Z,2.58
2018-08-17T03:43:03.902Z,2.67
2018-08-17T03:44:03.945Z,2.39
2018-08-17T03:45:03.975Z,2.29
2018-08-17T03:46:04.016Z,2.48
2018-08-17T03:47:04.056Z,2.67
2018-08-17T03:48:04.094Z,2.87
2018-08-17T03:49:04.135Z,2.58
2018-08-17T03:50:04.274Z,2.58
2018-08-17T03:51:04.213Z,2.20
2018-08-17T03:52:04.255Z,1.81
2018-08-17T03:53:04.290Z,1.53
2018-08-17T03:54:04.330Z,1.24
2018-08-17T03:55:04.370Z,1.24
2018-08-17T03:56:04.408Z,0.76
2018-08-17T03:57:04.449Z,0.57
2018-08-17T03:58:04.488Z,1.15
2018-08-17T03:59:04.531Z,1.34
2018-08-17T04:00:04.567Z,1.24
2018-08-17T04:01:04.607Z,1.24
2018-08-17T04:02:04.645Z,0.38
2018-08-17T04:03:04.684Z,0.76
2018-08-17T04:04:04.775Z,0.76
2018-08-17T04:05:04.762Z,0.57
2018-08-17T04:06:04.806Z,0.76
2018-08-17T04:07:04.843Z,1.24
2018-08-17T04:08:04.882Z,0.95
2018-08-17T04:09:04.920Z,1.43
2018-08-17T04:10:04.960Z,0.95
2018-08-17T04:11:05.005Z,0.86
2018-08-17T04:12:05.039Z,0.95
2018-08-17T04:13:05.078Z,1.24
2018-08-17T04:14:05.116Z,1.34
2018-08-17T04:15:05.156Z,1.53
2018-08-17T04:16:05.297Z,1.53
2018-08-17T04:17:05.235Z,1.15
2018-08-17T04:18:05.274Z,1.24
2018-08-17T04:19:05.339Z,0.95
2018-08-17T04:20:05.351Z,0.86
2018-08-17T04:21:05.393Z,1.72
2018-08-17T04:22:05.431Z,1.91
2018-08-17T04:23:05.472Z,2.77
2018-08-17T04:24:05.509Z,2.48
2018-08-17T04:25:05.553Z,2.58
2018-08-17T04:26:05.588Z,2.48
2018-08-17T04:27:05.628Z,2.58
2018-08-17T04:28:05.667Z,2.87
2018-08-17T04:29:05.705Z,3.16
2018-08-17T04:30:05.795Z,3.34
2018-08-17T04:31:05.784Z,3.34
2018-08-17T04:32:05.823Z,3.25
2018-08-17T04:33:06.113Z,3.44
2018-08-17T04:34:06.091Z,4.11
2018-08-17T04:35:06.208Z,3.73
2018-08-17T04:36:06.481Z,2.96
2018-08-17T04:37:06.028Z,2.77
2018-08-17T04:38:06.063Z,2.87
2018-08-17T04:39:06.106Z,2.87
2018-08-17T04:40:06.154Z,3.16
2018-08-17T04:41:06.178Z,3.25
2018-08-17T04:42:06.217Z,3.73
2018-08-17T04:43:06.256Z,3.63
2018-08-17T04:44:06.299Z,3.92
2018-08-17T04:45:06.335Z,4.11
2018-08-17T04:46:06.395Z,3.92
2018-08-17T04:47:06.414Z,3.82
2018-08-17T04:48:06.454Z,3.92
2018-08-17T04:49:06.501Z,4.30
2018-08-17T04:50:06.531Z,4.69
2018-08-17T04:51:06.573Z,4.78
2018-08-17T04:52:06.615Z,5.45
2018-08-17T04:53:06.649Z,5.83
2018-08-17T04:54:06.691Z,5.93
2018-08-17T04:55:06.732Z,5.83
2018-08-17T04:56:06.768Z,6.31
2018-08-17T04:57:06.806Z,6.12
2018-08-17T04:58:06.848Z,7.08
2018-08-17T04:59:06.886Z,8.04
2018-08-17T05:00:06.925Z,9.47
2018-08-17T05:01:06.965Z,10.33
2018-08-17T05:02:07.008Z,12.35
2018-08-17T05:03:07.048Z,14.65
2018-08-17T05:04:07.092Z,15.99
2018-08-17T05:05:07.121Z,17.80
2018-08-17T05:06:07.161Z,19.05
2018-08-17T05:07:07.200Z,20.02
2018-08-17T05:08:07.240Z,22.89
2018-08-17T05:09:07.336Z,22.70
2018-08-17T05:10:07.326Z,24.23
2018-08-17T05:11:07.359Z,24.90
2018-08-17T05:12:07.397Z,24.04
2018-08-17T05:13:07.438Z,23.27
2018-08-17T05:14:07.479Z,23.08
2018-08-17T05:15:07.516Z,22.89
2018-08-17T05:16:07.558Z,23.57
2018-08-17T05:17:07.600Z,22.89
2018-08-17T05:18:07.637Z,22.61
2018-08-17T05:19:07.676Z,23.37
2018-08-17T05:20:07.718Z,23.37
2018-08-17T05:21:07.755Z,23.08
2018-08-17T05:22:07.798Z,22.41
2018-08-17T05:23:07.837Z,21.84
2018-08-17T05:24:07.882Z,22.22
2018-08-17T05:25:07.919Z,21.74
2018-08-17T05:26:07.955Z,22.22
2018-08-17T05:27:07.995Z,22.41
2018-08-17T05:28:08.034Z,22.13
2018-08-17T05:29:08.071Z,22.32
2018-08-17T05:30:08.113Z,22.13
2018-08-17T05:31:08.155Z,22.41
2018-08-17T05:32:08.192Z,21.94
2018-08-17T05:33:08.232Z,21.07
2018-08-17T05:34:08.272Z,20.98
2018-08-17T05:35:08.320Z,20.21
2018-08-17T05:36:08.351Z,19.64
2018-08-17T05:37:08.390Z,19.25
2018-08-17T05:38:08.430Z,20.40
2018-08-17T05:39:08.471Z,22.32
2018-08-17T05:40:08.509Z,21.94
2018-08-17T05:41:08.551Z,22.70
2018-08-17T05:42:08.592Z,21.74
2018-08-17T05:43:08.638Z,21.55
2018-08-17T05:44:08.668Z,22.41
2018-08-17T05:45:08.815Z,22.99
2018-08-17T05:46:08.754Z,22.41
2018-08-17T05:47:08.789Z,24.23
2018-08-17T05:48:08.829Z,25.10
2018-08-17T05:49:08.868Z,25.57
2018-08-17T05:50:08.907Z,26.53
2018-08-17T05:51:08.947Z,26.43
2018-08-17T05:52:08.989Z,26.83
2018-08-17T05:53:09.028Z,27.89
2018-08-17T05:54:09.069Z,28.75
2018-08-17T05:55:09.107Z,29.13
2018-08-17T05:56:09.146Z,29.52
2018-08-17T05:57:09.188Z,29.42
2018-08-17T05:58:09.224Z,29.33
2018-08-17T05:59:09.265Z,30.47
2018-08-17T06:00:09.304Z,31.92
2018-08-17T06:01:09.351Z,33.25
2018-08-17T06:02:09.386Z,32.51
2018-08-17T06:03:09.428Z,35.00
2018-08-17T06:04:09.463Z,36.15
2018-08-17T06:05:09.504Z,37.11
2018-08-17T06:06:09.542Z,38.26
2018-08-17T06:07:09.584Z,38.93
2018-08-17T06:08:09.623Z,38.26
2018-08-17T06:09:09.662Z,38.93
2018-08-17T06:10:09.703Z,40.94
2018-08-17T06:11:09.937Z,41.25
2018-08-17T06:12:09.789Z,41.54
2018-08-17T06:13:09.822Z,43.27
2018-08-17T06:14:09.863Z,44.51
2018-08-17T06:15:09.904Z,45.47
2018-08-17T06:16:09.944Z,45.47
2018-08-17T06:17:09.993Z,45.86
2018-08-17T06:18:10.023Z,45.37
2018-08-17T06:19:10.102Z,46.62
2018-08-17T06:20:10.111Z,47.89
2018-08-17T06:21:10.146Z,48.38
2018-08-17T06:22:10.184Z,50.87
2018-08-17T06:23:10.225Z,49.91
2018-08-17T06:24:10.266Z,49.72
2018-08-17T06:25:10.305Z,50.96
2018-08-17T06:26:10.345Z,52.69
2018-08-17T06:27:10.393Z,52.79
2018-08-17T06:28:10.425Z,53.94
2018-08-17T06:29:10.466Z,54.25
2018-08-17T06:30:10.512Z,53.49
2018-08-17T06:31:10.546Z,56.18
2018-08-17T06:32:10.594Z,55.22
2018-08-17T06:33:10.631Z,56.27
2018-08-17T06:34:10.675Z,55.99
2018-08-17T06:35:10.709Z,57.33
2018-08-17T06:36:10.783Z,57.93
2018-08-17T06:37:10.831Z,60.82
2018-08-17T06:38:10.828Z,59.76
2018-08-17T06:39:10.876Z,61.20
2018-08-17T06:40:10.915Z,61.11
2018-08-17T06:41:10.954Z,62.26
2018-08-17T06:42:10.991Z,62.55
2018-08-17T06:43:11.033Z,63.41
2018-08-17T06:44:11.073Z,63.35
2018-08-17T06:45:11.121Z,63.64
2018-08-17T06:46:11.157Z,63.70
2018-08-17T06:47:11.196Z,63.35
2018-08-17T06:48:11.237Z,63.54
2018-08-17T06:49:11.278Z,62.58
2018-08-17T06:50:11.319Z,62.96
2018-08-17T06:51:11.461Z,63.35
2018-08-17T06:52:11.399Z,63.15
2018-08-17T06:53:11.441Z,65.27
2018-08-17T06:54:11.485Z,64.89
2018-08-17T06:55:11.522Z,64.89
2018-08-17T06:56:11.565Z,65.17
2018-08-17T06:57:11.681Z,65.84
2018-08-17T06:58:11.645Z,65.75
2018-08-17T06:59:11.688Z,66.14
2018-08-17T07:00:11.728Z,66.81
2018-08-17T07:01:11.784Z,66.65
2018-08-17T07:02:11.808Z,67.13
2018-08-17T07:03:11.849Z,68.19
2018-08-17T07:04:11.900Z,68.13
2018-08-17T07:05:11.932Z,68.80
2018-08-17T07:06:11.974Z,69.28
2018-08-17T07:07:12.016Z,70.62
2018-08-17T07:08:12.062Z,70.37
2018-08-17T07:09:12.293Z,71.53
2018-08-17T07:10:12.138Z,72.97
2018-08-17T07:11:12.184Z,72.78
2018-08-17T07:12:12.219Z,71.97
2018-08-17T07:13:12.264Z,70.62
2018-08-17T07:14:12.302Z,71.62
2018-08-17T07:15:12.345Z,71.43
2018-08-17T07:16:12.385Z,72.20
2018-08-17T07:17:12.433Z,72.78
2018-08-17T07:18:12.469Z,72.88
2018-08-17T07:19:12.511Z,73.16
2018-08-17T07:20:12.551Z,73.26
2018-08-17T07:21:12.593Z,73.55
2018-08-17T07:22:12.636Z,74.45
2018-08-17T07:23:12.684Z,74.45
2018-08-17T07:24:12.820Z,76.09
2018-08-17T07:25:12.759Z,76.38
2018-08-17T07:26:12.802Z,77.15
2018-08-17T07:27:12.842Z,76.38
2018-08-17T07:28:13.037Z,77.44
2018-08-17T07:29:12.931Z,77.06
2018-08-17T07:30:12.969Z,78.11
2018-08-17T07:31:13.008Z,77.63
2018-08-17T07:32:13.072Z,78.11
2018-08-17T07:33:13.091Z,78.11
2018-08-17T07:34:13.136Z,77.25
2018-08-17T07:35:13.176Z,77.73
2018-08-17T07:36:13.216Z,78.15
2018-08-17T07:37:13.259Z,78.44
2018-08-17T07:38:13.300Z,78.73
2018-08-17T07:39:13.342Z,78.15
2018-08-17T07:40:13.382Z,78.44
2018-08-17T07:41:13.424Z,79.69
2018-08-17T07:42:13.466Z,79.64
2018-08-17T07:43:13.508Z,80.22
2018-08-17T07:44:13.554Z,81.27
2018-08-17T07:45:13.642Z,82.53
2018-08-17T07:46:13.637Z,82.38
2018-08-17T07:47:13.747Z,83.44
2018-08-17T07:48:13.936Z,83.39
2018-08-17T07:49:13.760Z,83.77
2018-08-17T07:50:13.809Z,84.54
2018-08-17T07:51:13.844Z,85.36
2018-08-17T07:52:13.893Z,85.84
2018-08-17T07:53:13.928Z,85.36
2018-08-17T07:54:13.973Z,85.45
2018-08-17T07:55:14.016Z,86.22
2018-08-17T07:56:14.053Z,85.55
2018-08-17T07:57:14.094Z,87.19
2018-08-17T07:58:14.136Z,86.65
2018-08-17T07:59:14.181Z,87.13
2018-08-17T08:00:14.221Z,87.62
2018-08-17T08:01:14.264Z,87.62
2018-08-17T08:02:14.310Z,88.39
2018-08-17T08:03:14.348Z,88.39
2018-08-17T08:04:14.391Z,86.94
2018-08-17T08:05:14.439Z,88.49
2018-08-17T08:06:14.477Z,88.01
2018-08-17T08:07:14.523Z,87.71
2018-08-17T08:08:14.560Z,87.52
2018-08-17T08:09:14.610Z,87.71
2018-08-17T08:10:14.647Z,87.71
2018-08-17T08:11:14.709Z,87.43
2018-08-17T08:12:14.729Z,88.20
2018-08-17T08:13:14.773Z,87.71
2018-08-17T08:14:14.815Z,88.24
2018-08-17T08:15:14.859Z,87.47
2018-08-17T08:16:14.900Z,88.34
2018-08-17T08:17:14.943Z,88.82
2018-08-17T08:18:14.983Z,88.43
2018-08-17T08:19:15.030Z,88.43
2018-08-17T08:20:15.137Z,88.43
2018-08-17T08:21:15.114Z,88.53
2018-08-17T08:22:15.160Z,88.73
2018-08-17T08:23:15.201Z,89.01
2018-08-17T08:24:15.242Z,88.92
2018-08-17T08:25:15.285Z,88.63
2018-08-17T08:26:15.330Z,88.43
2018-08-17T08:27:15.373Z,89.59
2018-08-17T08:28:15.413Z,89.31
2018-08-17T08:29:15.464Z,88.96
2018-08-17T08:30:15.498Z,89.35
2018-08-17T08:31:15.541Z,89.15
2018-08-17T08:32:15.585Z,89.06
2018-08-17T08:33:15.626Z,89.45
2018-08-17T08:34:15.671Z,89.64
2018-08-17T08:35:15.713Z,89.35
2018-08-17T08:36:15.756Z,89.83
2018-08-17T08:37:15.805Z,90.17
2018-08-17T08:38:15.841Z,89.29
2018-08-17T08:39:15.893Z,89.97
2018-08-17T08:40:15.928Z,90.26
2018-08-17T08:41:15.972Z,89.49
2018-08-17T08:42:16.013Z,90.07
2018-08-17T08:43:16.057Z,89.25
2018-08-17T08:44:16.111Z,89.83
2018-08-17T08:45:16.143Z,90.41
2018-08-17T08:46:16.188Z,90.45
2018-08-17T08:47:16.230Z,90.06
2018-08-17T08:48:16.287Z,90.80
2018-08-17T08:49:16.317Z,91.13
2018-08-17T08:50:16.357Z,90.55
2018-08-17T08:51:16.411Z,90.64
2018-08-17T08:52:16.447Z,90.59
2018-08-17T08:53:16.489Z,91.08
2018-08-17T08:54:16.539Z,91.27
2018-08-17T08:55:16.574Z,91.37
2018-08-17T08:56:16.618Z,90.93
2018-08-17T08:57:16.666Z,90.93
2018-08-17T08:58:16.703Z,91.12
2018-08-17T08:59:16.747Z,90.93
2018-08-17T09:00:16.792Z,91.31
2018-08-17T09:01:16.836Z,91.12
2018-08-17T09:02:16.887Z,91.12
2018-08-17T09:03:16.923Z,91.80
2018-08-17T09:04:16.965Z,91.12
2018-08-17T09:05:17.008Z,91.41
2018-08-17T09:06:17.051Z,91.41
2018-08-17T09:07:17.098Z,91.71
2018-08-17T09:08:17.223Z,91.55
2018-08-17T09:09:17.184Z,92.62
2018-08-17T09:10:17.228Z,91.75
2018-08-17T09:11:17.279Z,91.36
2018-08-17T09:12:17.314Z,91.65
2018-08-17T09:13:17.359Z,91.99
2018-08-17T09:14:17.402Z,91.11
2018-08-17T09:15:17.448Z,91.41
2018-08-17T09:16:17.490Z,91.94
2018-08-17T09:17:17.534Z,91.46
2018-08-17T09:18:17.578Z,91.94
2018-08-17T09:19:17.623Z,91.17
2018-08-17T09:20:17.749Z,91.99
2018-08-17T09:21:17.709Z,91.70
2018-08-17T09:22:17.752Z,91.89
2018-08-17T09:23:17.796Z,91.50
2018-08-17T09:24:17.840Z,91.70
2018-08-17T09:25:17.883Z,91.79
2018-08-17T09:26:17.927Z,91.70
2018-08-17T09:27:17.973Z,91.79
2018-08-17T09:28:18.014Z,92.08
2018-08-17T09:29:18.194Z,91.41
2018-08-17T09:30:18.182Z,91.79
2018-08-17T09:31:18.148Z,91.79
2018-08-17T09:32:18.192Z,91.99
2018-08-17T09:33:18.235Z,91.60
2018-08-17T09:34:18.281Z,92.18
2018-08-17T09:35:18.323Z,92.14
2018-08-17T09:36:18.365Z,92.33
2018-08-17T09:37:18.463Z,92.43
2018-08-17T09:38:18.457Z,92.08
2018-08-17T09:39:18.503Z,92.52
2018-08-17T09:40:18.555Z,92.43
2018-08-17T09:41:18.589Z,91.94
2018-08-17T09:42:18.630Z,91.89
2018-08-17T09:43:18.686Z,92.08
2018-08-17T09:44:18.718Z,92.47
2018-08-17T09:45:18.761Z,91.99
2018-08-17T09:46:18.846Z,92.08
2018-08-17T09:47:18.851Z,92.04
2018-08-17T09:48:18.903Z,92.33
2018-08-17T09:49:19.849Z,92.43
2018-08-17T09:50:18.984Z,92.43
2018-08-17T09:51:19.102Z,91.85
2018-08-17T09:52:19.068Z,92.33
2018-08-17T09:53:19.121Z,92.52
2018-08-17T09:54:19.165Z,92.43
2018-08-17T09:55:19.200Z,92.52
2018-08-17T09:56:19.243Z,92.04
2018-08-17T09:57:19.390Z,92.52
2018-08-17T09:58:19.384Z,93.01
2018-08-17T09:59:19.375Z,92.43
2018-08-17T10:00:19.421Z,92.82
2018-08-17T10:01:19.477Z,92.52
2018-08-17T10:02:19.508Z,92.72
2018-08-17T10:03:19.550Z,92.62
2018-08-17T10:04:19.641Z,92.82
2018-08-17T10:05:19.661Z,92.43
2018-08-17T10:06:19.728Z,92.72
2018-08-17T10:07:19.725Z,92.62
2018-08-17T10:08:19.768Z,92.62
2018-08-17T10:09:19.812Z,92.57
2018-08-17T10:10:19.854Z,92.38
2018-08-17T10:11:19.899Z,92.38
2018-08-17T10:12:19.942Z,92.57
2018-08-17T10:13:19.985Z,91.45
2018-08-17T10:14:20.036Z,91.45
2018-08-17T10:15:20.072Z,91.84
2018-08-17T10:16:20.117Z,91.84
2018-08-17T10:17:20.160Z,92.03
2018-08-17T10:18:20.205Z,92.13
2018-08-17T10:19:20.245Z,91.64
2018-08-17T10:20:20.291Z,91.84
2018-08-17T10:21:20.678Z,91.94
2018-08-17T10:22:20.381Z,92.71
2018-08-17T10:23:20.419Z,91.84
2018-08-17T10:24:20.461Z,91.74
2018-08-17T10:25:20.507Z,91.84
2018-08-17T10:26:20.558Z,91.94
2018-08-17T10:27:20.597Z,91.94
2018-08-17T10:28:20.639Z,92.13
2018-08-17T10:29:20.690Z,92.08
2018-08-17T10:30:20.726Z,91.55
2018-08-17T10:31:20.778Z,90.87
2018-08-17T10:32:20.813Z,90.38
2018-08-17T10:33:20.855Z,91.45
2018-08-17T10:34:20.900Z,91.40
2018-08-17T10:35:20.950Z,91.64
2018-08-17T10:36:20.994Z,91.69
2018-08-17T10:37:21.031Z,91.98
2018-08-17T10:38:21.075Z,91.88
2018-08-17T10:39:21.129Z,91.98
2018-08-17T10:40:21.160Z,91.88
2018-08-17T10:41:21.206Z,91.88
2018-08-17T10:42:21.248Z,91.88
2018-08-17T10:43:21.293Z,91.88
2018-08-17T10:44:21.334Z,91.88
2018-08-17T10:45:21.379Z,91.69
2018-08-17T10:46:21.436Z,91.78
2018-08-17T10:47:21.466Z,91.78
2018-08-17T10:48:21.511Z,91.88
2018-08-17T10:49:21.554Z,91.88
2018-08-17T10:50:21.600Z,92.66
2018-08-17T10:51:21.647Z,92.03
2018-08-17T10:52:21.690Z,91.78
2018-08-17T10:53:21.737Z,90.95
2018-08-17T10:54:21.776Z,90.91
2018-08-17T10:55:21.838Z,90.91
2018-08-17T10:56:21.860Z,91.50
2018-08-17T10:57:21.972Z,91.30
2018-08-17T10:58:21.947Z,91.69
2018-08-17T10:59:21.992Z,91.78
2018-08-17T11:00:22.035Z,91.88
2018-08-17T11:01:22.077Z,91.59
2018-08-17T11:02:22.122Z,91.40
2018-08-17T11:03:22.167Z,90.95
2018-08-17T11:04:22.217Z,91.74
2018-08-17T11:05:22.254Z,90.95
2018-08-17T11:06:22.298Z,91.15
2018-08-17T11:07:22.341Z,91.05
2018-08-17T11:08:22.386Z,91.05
2018-08-17T11:09:22.430Z,91.05
2018-08-17T11:10:22.472Z,91.25
2018-08-17T11:11:22.527Z,90.47
2018-08-17T11:12:22.562Z,90.32
2018-08-17T11:13:22.653Z,90.32
2018-08-17T11:14:22.669Z,89.84
2018-08-17T11:15:22.693Z,89.79
2018-08-17T11:16:22.734Z,90.28
2018-08-17T11:17:22.779Z,90.28
2018-08-17T11:18:22.823Z,89.79
2018-08-17T11:19:22.867Z,89.98
2018-08-17T11:20:22.910Z,90.18
2018-08-17T11:21:22.954Z,89.89
2018-08-17T11:22:23.000Z,89.59
2018-08-17T11:23:23.043Z,90.47
2018-08-17T11:24:23.090Z,90.28
2018-08-17T11:25:23.132Z,90.28
2018-08-17T11:26:23.175Z,90.86
2018-08-17T11:27:23.220Z,89.69
2018-08-17T11:28:23.269Z,90.47
2018-08-17T11:29:23.317Z,89.40
2018-08-17T11:30:23.360Z,89.89
2018-08-17T11:31:23.399Z,89.01
2018-08-17T11:32:23.438Z,89.21
2018-08-17T11:33:23.484Z,89.69
2018-08-17T11:34:23.596Z,89.79
2018-08-17T11:35:23.571Z,89.69
2018-08-17T11:36:23.614Z,89.79
2018-08-17T11:37:23.659Z,89.89
2018-08-17T11:38:23.713Z,89.98
2018-08-17T11:39:23.746Z,89.93
2018-08-17T11:40:23.798Z,89.74
2018-08-17T11:41:23.869Z,89.25
2018-08-17T11:42:23.889Z,89.79
2018-08-17T11:43:23.923Z,88.67
2018-08-17T11:44:23.970Z,88.86
2018-08-17T11:45:24.017Z,89.54
2018-08-17T11:46:24.054Z,89.50
2018-08-17T11:47:24.099Z,88.92
2018-08-17T11:48:24.143Z,89.45
2018-08-17T11:49:24.190Z,88.82
2018-08-17T11:50:24.741Z,90.57
2018-08-17T11:51:24.279Z,90.03
2018-08-17T11:52:24.318Z,89.54
2018-08-17T11:53:24.365Z,89.45
2018-08-17T11:54:24.408Z,89.64
2018-08-17T11:55:24.455Z,89.15
2018-08-17T11:56:24.547Z,89.45
2018-08-17T11:57:24.548Z,88.57
2018-08-17T11:58:24.585Z,88.28
2018-08-17T11:59:24.629Z,87.99
2018-08-17T12:00:24.687Z,88.32
2018-08-17T12:01:24.717Z,88.23
2018-08-17T12:02:24.770Z,88.32
2018-08-17T12:03:24.806Z,89.39
2018-08-17T12:04:24.853Z,88.90
2018-08-17T12:05:24.892Z,88.23
2018-08-17T12:06:24.936Z,88.23
2018-08-17T12:07:24.992Z,88.62
2018-08-17T12:08:25.053Z,88.32
2018-08-17T12:09:25.071Z,88.32
2018-08-17T12:10:25.116Z,87.54
2018-08-17T12:11:25.160Z,86.47
2018-08-17T12:12:25.201Z,86.91
2018-08-17T12:13:25.258Z,86.77
2018-08-17T12:14:25.293Z,87.49
2018-08-17T12:15:25.338Z,87.01
2018-08-17T12:16:25.380Z,86.13
2018-08-17T12:17:25.426Z,86.81
2018-08-17T12:18:25.471Z,85.64
2018-08-17T12:19:25.519Z,85.64
2018-08-17T12:20:25.566Z,86.71
2018-08-17T12:21:25.601Z,86.71
2018-08-17T12:22:25.647Z,87.59
2018-08-17T12:23:25.693Z,86.71
2018-08-17T12:24:25.812Z,85.25
2018-08-17T12:25:25.788Z,86.76
2018-08-17T12:26:25.830Z,85.19
2018-08-17T12:27:25.871Z,84.81
2018-08-17T12:28:25.925Z,84.81
2018-08-17T12:29:25.959Z,83.73
2018-08-17T12:30:26.007Z,83.34
2018-08-17T12:31:26.048Z,83.68
2018-08-17T12:32:26.099Z,83.87
2018-08-17T12:33:26.135Z,82.70
2018-08-17T12:34:26.180Z,83.00
2018-08-17T12:35:26.223Z,82.80
2018-08-17T12:36:26.277Z,82.60
2018-08-17T12:37:26.313Z,83.00
2018-08-17T12:38:26.357Z,83.00
2018-08-17T12:39:26.405Z,82.41
2018-08-17T12:40:26.447Z,82.12
2018-08-17T12:41:26.510Z,81.93
2018-08-17T12:42:26.536Z,82.90
2018-08-17T12:43:26.582Z,83.00
2018-08-17T12:44:26.625Z,81.54
2018-08-17T12:45:26.679Z,81.24
2018-08-17T12:46:26.752Z,81.09
2018-08-17T12:47:26.761Z,80.80
2018-08-17T12:48:26.803Z,79.72
2018-08-17T12:49:26.858Z,78.75
2018-08-17T12:50:26.894Z,78.16
2018-08-17T12:51:26.945Z,78.36
2018-08-17T12:52:27.116Z,78.06
2018-08-17T12:53:27.027Z,79.37
2018-08-17T12:54:27.072Z,77.36
2018-08-17T12:55:27.117Z,75.80
2018-08-17T12:56:27.162Z,75.45
2018-08-17T12:57:27.225Z,73.69
2018-08-17T12:58:27.253Z,73.01
2018-08-17T12:59:27.298Z,72.52